createdAt,value
2022-11-29T00:00:27.675Z,82.48
2022-11-29T00:01:27.956Z,82.58
2022-11-29T00:02:28.304Z,82.68
2022-11-29T00:03:28.639Z,82.68
2022-11-29T00:04:28.787Z,82.79
2022-11-29T00:05:29.100Z,82.68
2022-11-29T00:06:29.368Z,82.68
2022-11-29T00:07:29.679Z,82.58
2022-11-29T00:08:29.908Z,82.58
2022-11-29T00:09:30.172Z,82.58
2022-11-29T00:10:30.477Z,82.48
2022-11-29T00:11:30.719Z,82.58
2022-11-29T00:12:30.957Z,82.48
2022-11-29T00:13:31.209Z,82.48
2022-11-29T00:14:31.477Z,82.48
2022-11-29T00:15:31.712Z,82.48
2022-11-29T00:16:32.040Z,82.58
2022-11-29T00:17:32.354Z,82.58
2022-11-29T00:18:32.602Z,82.68
2022-11-29T00:19:32.891Z,82.68
2022-11-29T00:20:33.131Z,82.58
2022-11-29T00:21:33.399Z,82.58
2022-11-29T00:22:33.685Z,82.58
2022-11-29T00:23:33.960Z,82.68
2022-11-29T00:24:34.198Z,82.79
2022-11-29T00:25:34.444Z,82.89
2022-11-29T00:26:34.705Z,83.00
2022-11-29T00:27:34.991Z,83.00
2022-11-29T00:28:35.251Z,82.89
2022-11-29T00:29:35.519Z,82.89
2022-11-29T00:30:35.821Z,83.00
2022-11-29T00:31:36.095Z,82.89
2022-11-29T00:32:36.368Z,83.00
2022-11-29T00:33:36.645Z,83.00
2022-11-29T00:34:36.883Z,82.89
2022-11-29T00:35:37.164Z,82.89
2022-11-29T00:36:37.424Z,82.89
2022-11-29T00:37:37.693Z,82.89
2022-11-29T00:38:37.919Z,82.89
2022-11-29T00:39:38.215Z,82.89
2022-11-29T00:40:38.575Z,82.79
2022-11-29T00:41:38.864Z,82.89
2022-11-29T00:42:39.170Z,82.89
2022-11-29T00:43:39.468Z,82.68
2022-11-29T00:44:39.787Z,82.79
2022-11-29T00:45:40.098Z,82.79
2022-11-29T00:46:40.356Z,82.89
2022-11-29T00:47:40.625Z,82.89
2022-11-29T00:48:40.903Z,82.89
2022-11-29T00:49:41.221Z,83.00
2022-11-29T00:50:41.547Z,82.89
2022-11-29T00:51:41.797Z,82.89
2022-11-29T00:52:42.056Z,83.00
2022-11-29T00:53:42.305Z,83.00
2022-11-29T00:54:42.914Z,83.00
2022-11-29T00:55:42.893Z,83.00
2022-11-29T00:56:43.144Z,83.00
2022-11-29T00:57:43.429Z,83.10
2022-11-29T00:58:43.698Z,83.00
2022-11-29T00:59:44.081Z,82.79
2022-11-29T01:00:44.406Z,83.00
2022-11-29T01:01:44.645Z,83.00
2022-11-29T01:02:44.977Z,83.00
2022-11-29T01:03:45.210Z,83.00
2022-11-29T01:04:45.740Z,83.00
2022-11-29T01:05:45.703Z,83.00
2022-11-29T01:06:45.938Z,83.00
2022-11-29T01:07:46.241Z,83.00
2022-11-29T01:08:46.520Z,83.00
2022-11-29T01:09:46.815Z,83.10
2022-11-29T01:10:47.079Z,83.00
2022-11-29T01:11:47.329Z,82.89
2022-11-29T01:12:47.587Z,82.89
2022-11-29T01:13:48.031Z,82.89
2022-11-29T01:14:48.167Z,83.00
2022-11-29T01:15:48.468Z,82.89
2022-11-29T01:16:48.790Z,82.89
2022-11-29T01:17:49.088Z,83.00
2022-11-29T01:18:49.358Z,82.89
2022-11-29T01:19:51.079Z,83.00
2022-11-29T01:20:49.915Z,83.20
2022-11-29T01:21:50.302Z,83.20
2022-11-29T01:22:50.628Z,83.20
2022-11-29T01:23:50.832Z,83.20
2022-11-29T01:24:51.150Z,83.20
2022-11-29T01:25:51.403Z,83.20
2022-11-29T01:26:51.640Z,83.20
2022-11-29T01:27:51.881Z,83.20
2022-11-29T01:28:52.154Z,83.31
2022-11-29T01:29:52.417Z,83.41
2022-11-29T01:30:52.709Z,83.41
2022-11-29T01:31:52.956Z,83.31
2022-11-29T01:32:53.228Z,83.20
2022-11-29T01:33:53.498Z,83.20
2022-11-29T01:34:53.773Z,83.00
2022-11-29T01:35:54.034Z,82.89
2022-11-29T01:36:54.345Z,83.00
2022-11-29T01:37:54.573Z,83.00
2022-11-29T01:38:54.864Z,83.10
2022-11-29T01:39:55.135Z,83.20
2022-11-29T01:40:55.365Z,83.20
2022-11-29T01:41:55.730Z,83.20
2022-11-29T01:42:55.962Z,83.00
2022-11-29T01:43:56.264Z,82.89
2022-11-29T01:44:56.620Z,83.10
2022-11-29T01:45:56.886Z,83.20
2022-11-29T01:46:57.178Z,83.20
2022-11-29T01:47:57.575Z,83.10
2022-11-29T01:48:57.728Z,83.31
2022-11-29T01:49:58.118Z,83.41
2022-11-29T01:50:58.321Z,83.31
2022-11-29T01:51:58.536Z,83.20
2022-11-29T01:52:58.823Z,83.31
2022-11-29T01:53:59.136Z,83.31
2022-11-29T01:54:59.464Z,83.20
2022-11-29T01:55:59.684Z,83.20
2022-11-29T01:57:00.049Z,83.20
2022-11-29T01:58:00.166Z,83.00
2022-11-29T01:59:00.464Z,83.00
2022-11-29T02:00:00.807Z,83.10
2022-11-29T02:01:01.146Z,83.10
2022-11-29T02:02:01.474Z,83.10
2022-11-29T02:03:01.701Z,83.20
2022-11-29T02:04:01.995Z,83.20
2022-11-29T02:05:02.373Z,83.31
2022-11-29T02:06:02.612Z,83.41
2022-11-29T02:07:02.842Z,83.31
2022-11-29T02:08:03.163Z,83.20
2022-11-29T02:09:03.419Z,83.10
2022-11-29T02:10:03.770Z,83.20
2022-11-29T02:11:03.971Z,83.31
2022-11-29T02:12:04.280Z,83.20
2022-11-29T02:13:04.631Z,83.20
2022-11-29T02:14:04.816Z,83.20
2022-11-29T02:15:05.130Z,83.31
2022-11-29T02:16:05.503Z,83.41
2022-11-29T02:17:05.785Z,83.31
2022-11-29T02:18:06.091Z,83.31
2022-11-29T02:19:06.365Z,83.31
2022-11-29T02:20:06.689Z,83.20
2022-11-29T02:21:06.967Z,83.20
2022-11-29T02:22:07.231Z,83.20
2022-11-29T02:23:07.509Z,83.20
2022-11-29T02:24:07.758Z,83.31
2022-11-29T02:25:08.021Z,83.31
2022-11-29T02:26:08.262Z,83.41
2022-11-29T02:27:08.512Z,83.34
2022-11-29T02:28:08.771Z,83.41
2022-11-29T02:29:09.010Z,83.31
2022-11-29T02:30:09.291Z,83.20
2022-11-29T02:31:09.594Z,83.31
2022-11-29T02:32:09.840Z,83.31
2022-11-29T02:33:10.081Z,83.31
2022-11-29T02:34:10.302Z,83.31
2022-11-29T02:35:10.673Z,83.31
2022-11-29T02:36:10.928Z,83.41
2022-11-29T02:37:11.744Z,83.31
2022-11-29T02:38:11.519Z,83.31
2022-11-29T02:39:11.787Z,83.31
2022-11-29T02:40:12.095Z,83.34
2022-11-29T02:41:12.363Z,83.34
2022-11-29T02:42:12.653Z,83.45
2022-11-29T02:43:12.881Z,83.45
2022-11-29T02:44:13.166Z,83.45
2022-11-29T02:45:13.457Z,83.45
2022-11-29T02:46:13.795Z,83.55
2022-11-29T02:47:13.946Z,83.55
2022-11-29T02:48:14.218Z,83.51
2022-11-29T02:49:14.505Z,83.51
2022-11-29T02:50:14.807Z,83.41
2022-11-29T02:51:15.103Z,83.41
2022-11-29T02:52:15.363Z,83.41
2022-11-29T02:53:15.628Z,83.45
2022-11-29T02:54:15.885Z,83.41
2022-11-29T02:55:16.185Z,83.41
2022-11-29T02:56:16.444Z,83.55
2022-11-29T02:57:16.742Z,83.55
2022-11-29T02:58:16.987Z,83.55
2022-11-29T02:59:17.227Z,83.65
2022-11-29T03:00:17.519Z,83.65
2022-11-29T03:01:17.810Z,83.65
2022-11-29T03:02:18.136Z,83.76
2022-11-29T03:03:18.410Z,83.72
2022-11-29T03:04:18.675Z,83.65
2022-11-29T03:05:18.937Z,83.76
2022-11-29T03:06:19.176Z,83.65
2022-11-29T03:07:19.465Z,83.76
2022-11-29T03:08:19.728Z,83.62
2022-11-29T03:09:19.998Z,83.51
2022-11-29T03:10:20.285Z,83.41
2022-11-29T03:11:20.552Z,83.55
2022-11-29T03:12:20.830Z,83.51
2022-11-29T03:13:21.054Z,83.51
2022-11-29T03:14:21.306Z,83.62
2022-11-29T03:15:21.600Z,83.62
2022-11-29T03:16:21.842Z,83.62
2022-11-29T03:17:22.169Z,83.41
2022-11-29T03:18:22.466Z,83.41
2022-11-29T03:19:22.785Z,83.41
2022-11-29T03:20:23.042Z,83.31
2022-11-29T03:21:23.312Z,83.20
2022-11-29T03:22:23.647Z,83.31
2022-11-29T03:23:23.919Z,83.20
2022-11-29T03:24:24.152Z,83.31
2022-11-29T03:25:24.416Z,83.41
2022-11-29T03:26:24.648Z,83.55
2022-11-29T03:27:24.889Z,83.55
2022-11-29T03:28:25.131Z,83.65
2022-11-29T03:29:25.409Z,83.65
2022-11-29T03:30:25.683Z,83.65
2022-11-29T03:31:25.973Z,83.86
2022-11-29T03:32:26.234Z,83.86
2022-11-29T03:33:26.472Z,83.86
2022-11-29T03:34:26.715Z,83.86
2022-11-29T03:35:26.983Z,83.86
2022-11-29T03:36:27.260Z,83.86
2022-11-29T03:37:27.492Z,83.86
2022-11-29T03:38:27.764Z,83.86
2022-11-29T03:39:28.024Z,83.86
2022-11-29T03:40:28.314Z,83.86
2022-11-29T03:41:28.577Z,83.97
2022-11-29T03:42:28.896Z,83.97
2022-11-29T03:43:29.154Z,84.07
2022-11-29T03:44:29.425Z,84.07
2022-11-29T03:45:29.664Z,84.07
2022-11-29T03:46:29.989Z,83.97
2022-11-29T03:47:30.218Z,83.97
2022-11-29T03:48:30.458Z,83.97
2022-11-29T03:49:30.695Z,83.86
2022-11-29T03:50:30.954Z,83.76
2022-11-29T03:51:31.205Z,83.86
2022-11-29T03:52:31.476Z,83.72
2022-11-29T03:53:31.704Z,83.72
2022-11-29T03:54:31.975Z,83.62
2022-11-29T03:55:32.256Z,83.62
2022-11-29T03:56:32.486Z,83.62
2022-11-29T03:57:32.779Z,83.51
2022-11-29T03:58:33.035Z,83.62
2022-11-29T03:59:33.295Z,83.62
2022-11-29T04:00:33.575Z,83.62
2022-11-29T04:01:33.929Z,83.62
2022-11-29T04:02:34.176Z,83.51
2022-11-29T04:03:34.430Z,83.51
2022-11-29T04:04:34.715Z,83.62
2022-11-29T04:05:35.034Z,83.51
2022-11-29T04:06:35.349Z,83.62
2022-11-29T04:07:35.719Z,83.51
2022-11-29T04:08:35.989Z,83.62
2022-11-29T04:09:36.250Z,83.72
2022-11-29T04:10:36.529Z,83.72
2022-11-29T04:11:36.851Z,83.72
2022-11-29T04:12:37.136Z,83.51
2022-11-29T04:13:45.876Z,83.41
2022-11-29T04:14:37.656Z,83.41
2022-11-29T04:15:37.943Z,83.51
2022-11-29T04:16:38.149Z,83.62
2022-11-29T04:17:38.368Z,83.62
2022-11-29T04:18:38.727Z,83.62
2022-11-29T04:19:38.958Z,83.51
2022-11-29T04:20:43.008Z,83.41
2022-11-29T04:21:40.435Z,83.31
2022-11-29T04:22:39.710Z,83.31
2022-11-29T04:23:40.202Z,83.31
2022-11-29T04:24:40.385Z,83.20
2022-11-29T04:25:40.642Z,83.41
2022-11-29T04:26:40.883Z,83.41
2022-11-29T04:27:41.124Z,83.51
2022-11-29T04:28:41.364Z,83.51
2022-11-29T04:29:41.589Z,83.51
2022-11-29T04:30:41.852Z,83.41
2022-11-29T04:31:42.082Z,83.31
2022-11-29T04:32:42.331Z,83.20
2022-11-29T04:33:42.550Z,83.20
2022-11-29T04:34:43.295Z,83.20
2022-11-29T04:35:43.211Z,83.31
2022-11-29T04:36:43.448Z,83.31
2022-11-29T04:37:43.691Z,83.10
2022-11-29T04:38:43.924Z,83.20
2022-11-29T04:39:44.176Z,83.00
2022-11-29T04:40:44.433Z,83.00
2022-11-29T04:41:44.651Z,83.10
2022-11-29T04:42:44.999Z,83.00
2022-11-29T04:43:45.242Z,83.00
2022-11-29T04:44:45.687Z,83.00
2022-11-29T04:45:45.771Z,82.89
2022-11-29T04:46:46.053Z,83.00
2022-11-29T04:47:46.268Z,83.20
2022-11-29T04:48:46.596Z,83.10
2022-11-29T04:49:46.862Z,83.10
2022-11-29T04:50:47.131Z,83.20
2022-11-29T04:51:47.342Z,83.20
2022-11-29T04:52:47.691Z,83.20
2022-11-29T04:53:47.973Z,83.20
2022-11-29T04:54:48.274Z,83.20
2022-11-29T04:55:48.575Z,83.31
2022-11-29T04:56:48.874Z,83.10
2022-11-29T04:57:49.122Z,83.00
2022-11-29T04:58:49.417Z,83.00
2022-11-29T04:59:49.804Z,83.00
2022-11-29T05:00:49.973Z,83.10
2022-11-29T05:01:50.299Z,83.10
2022-11-29T05:02:50.610Z,83.10
2022-11-29T05:03:56.736Z,83.20
2022-11-29T05:04:52.093Z,83.20
2022-11-29T05:05:51.565Z,83.34
2022-11-29T05:06:51.617Z,83.45
2022-11-29T05:07:51.931Z,83.41
2022-11-29T05:08:52.226Z,83.41
2022-11-29T05:09:52.507Z,83.45
2022-11-29T05:10:52.755Z,83.34
2022-11-29T05:11:53.117Z,83.20
2022-11-29T05:12:53.427Z,83.24
2022-11-29T05:13:53.531Z,83.34
2022-11-29T05:14:53.767Z,83.45
2022-11-29T05:15:54.208Z,83.34
2022-11-29T05:16:54.471Z,83.45
2022-11-29T05:17:54.676Z,83.55
2022-11-29T05:18:54.798Z,83.65
2022-11-29T05:19:55.041Z,83.65
2022-11-29T05:20:55.409Z,83.72
2022-11-29T05:21:55.688Z,83.45
2022-11-29T05:22:55.917Z,83.45
2022-11-29T05:23:56.179Z,83.55
2022-11-29T05:24:56.429Z,83.51
2022-11-29T05:25:56.739Z,83.31
2022-11-29T05:26:56.968Z,83.41
2022-11-29T05:27:57.230Z,83.45
2022-11-29T05:28:57.461Z,83.55
2022-11-29T05:29:57.729Z,83.51
2022-11-29T05:30:57.988Z,83.62
2022-11-29T05:31:58.262Z,83.62
2022-11-29T05:32:58.509Z,83.62
2022-11-29T05:33:58.757Z,83.62
2022-11-29T05:34:59.013Z,83.62
2022-11-29T05:35:59.271Z,83.62
2022-11-29T05:36:59.545Z,83.51
2022-11-29T05:37:59.780Z,83.51
2022-11-29T05:39:00.031Z,83.41
2022-11-29T05:40:00.291Z,83.20
2022-11-29T05:41:00.531Z,83.20
2022-11-29T05:42:00.763Z,83.10
2022-11-29T05:43:00.993Z,83.10
2022-11-29T05:44:01.228Z,83.10
2022-11-29T05:45:01.583Z,83.10
2022-11-29T05:46:01.894Z,83.20
2022-11-29T05:47:02.140Z,83.20
2022-11-29T05:48:02.356Z,83.20
2022-11-29T05:49:02.592Z,83.20
2022-11-29T05:50:02.822Z,83.20
2022-11-29T05:51:03.081Z,83.20
2022-11-29T05:52:03.304Z,83.20
2022-11-29T05:53:03.543Z,83.10
2022-11-29T05:54:03.848Z,83.20
2022-11-29T05:55:04.084Z,83.10
2022-11-29T05:56:04.333Z,83.20
2022-11-29T05:57:04.581Z,83.34
2022-11-29T05:58:04.812Z,83.45
2022-11-29T05:59:05.054Z,83.41
2022-11-29T06:00:05.304Z,83.41
2022-11-29T06:01:05.575Z,83.45
2022-11-29T06:02:05.846Z,83.45
2022-11-29T06:03:06.166Z,83.45
2022-11-29T06:04:11.701Z,83.45
2022-11-29T06:05:07.686Z,83.45
2022-11-29T06:06:06.985Z,83.55
2022-11-29T06:07:07.214Z,83.65
2022-11-29T06:08:07.424Z,83.76
2022-11-29T06:09:07.779Z,83.76
2022-11-29T06:10:08.016Z,83.65
2022-11-29T06:11:08.267Z,83.55
2022-11-29T06:12:08.493Z,83.45
2022-11-29T06:13:08.759Z,83.55
2022-11-29T06:14:08.966Z,83.65
2022-11-29T06:15:09.314Z,83.76
2022-11-29T06:16:09.711Z,83.76
2022-11-29T06:17:09.910Z,83.55
2022-11-29T06:18:10.267Z,83.55
2022-11-29T06:19:10.497Z,83.55
2022-11-29T06:20:10.749Z,83.45
2022-11-29T06:21:11.007Z,83.55
2022-11-29T06:22:11.257Z,83.45
2022-11-29T06:23:11.477Z,83.55
2022-11-29T06:24:11.818Z,83.55
2022-11-29T06:25:12.158Z,83.55
2022-11-29T06:26:12.558Z,83.65
2022-11-29T06:27:12.789Z,83.65
2022-11-29T06:28:13.035Z,83.65
2022-11-29T06:29:13.367Z,83.55
2022-11-29T06:30:13.599Z,83.65
2022-11-29T06:31:13.885Z,83.65
2022-11-29T06:32:14.120Z,83.76
2022-11-29T06:33:14.388Z,83.51
2022-11-29T06:34:14.600Z,83.34
2022-11-29T06:35:14.980Z,83.31
2022-11-29T06:36:15.220Z,83.34
2022-11-29T06:37:15.480Z,83.24
2022-11-29T06:38:15.702Z,83.34
2022-11-29T06:39:15.966Z,83.45
2022-11-29T06:40:16.198Z,83.45
2022-11-29T06:41:16.454Z,83.65
2022-11-29T06:42:16.706Z,83.76
2022-11-29T06:43:16.965Z,83.72
2022-11-29T06:44:17.214Z,83.51
2022-11-29T06:45:17.454Z,83.31
2022-11-29T06:46:17.766Z,83.20
2022-11-29T06:47:18.019Z,83.31
2022-11-29T06:48:18.242Z,83.31
2022-11-29T06:49:18.484Z,83.20
2022-11-29T06:50:18.723Z,83.20
2022-11-29T06:51:18.986Z,83.10
2022-11-29T06:52:19.225Z,83.10
2022-11-29T06:53:19.495Z,83.00
2022-11-29T06:54:19.746Z,82.89
2022-11-29T06:55:20.003Z,82.79
2022-11-29T06:56:20.267Z,82.89
2022-11-29T06:57:20.514Z,82.89
2022-11-29T06:58:20.764Z,83.00
2022-11-29T06:59:21.018Z,83.00
2022-11-29T07:00:21.278Z,82.89
2022-11-29T07:01:21.569Z,82.79
2022-11-29T07:02:21.884Z,82.79
2022-11-29T07:03:22.108Z,82.89
2022-11-29T07:04:22.386Z,83.03
2022-11-29T07:05:22.656Z,83.14
2022-11-29T07:06:22.926Z,83.14
2022-11-29T07:07:23.207Z,83.24
2022-11-29T07:08:23.517Z,83.34
2022-11-29T07:09:23.912Z,83.31
2022-11-29T07:10:24.019Z,83.34
2022-11-29T07:11:24.289Z,83.31
2022-11-29T07:12:24.567Z,83.31
2022-11-29T07:13:24.790Z,83.31
2022-11-29T07:14:25.053Z,83.31
2022-11-29T07:15:25.292Z,83.31
2022-11-29T07:16:25.647Z,83.20
2022-11-29T07:17:25.890Z,83.20
2022-11-29T07:18:26.177Z,83.10
2022-11-29T07:19:26.441Z,83.20
2022-11-29T07:20:26.709Z,83.20
2022-11-29T07:21:26.984Z,82.89
2022-11-29T07:22:27.252Z,82.79
2022-11-29T07:23:27.511Z,82.89
2022-11-29T07:24:27.782Z,82.89
2022-11-29T07:25:28.029Z,82.89
2022-11-29T07:26:28.333Z,82.89
2022-11-29T07:27:28.581Z,82.89
2022-11-29T07:28:28.831Z,82.79
2022-11-29T07:29:29.096Z,82.58
2022-11-29T07:30:29.353Z,82.79
2022-11-29T07:31:29.703Z,82.79
2022-11-29T07:32:29.940Z,82.58
2022-11-29T07:33:30.185Z,82.58
2022-11-29T07:34:30.433Z,82.48
2022-11-29T07:35:30.684Z,82.37
2022-11-29T07:36:30.972Z,82.48
2022-11-29T07:37:31.323Z,82.37
2022-11-29T07:38:31.573Z,82.37
2022-11-29T07:39:31.848Z,82.37
2022-11-29T07:40:37.410Z,82.37
2022-11-29T07:41:33.384Z,82.48
2022-11-29T07:42:32.688Z,82.48
2022-11-29T07:43:32.929Z,82.58
2022-11-29T07:44:33.194Z,82.58
2022-11-29T07:45:33.448Z,82.68
2022-11-29T07:46:33.741Z,82.58
2022-11-29T07:47:35.912Z,82.48
2022-11-29T07:48:34.216Z,82.48
2022-11-29T07:49:34.454Z,82.58
2022-11-29T07:50:34.697Z,82.58
2022-11-29T07:51:34.974Z,82.68
2022-11-29T07:52:35.245Z,82.58
2022-11-29T07:53:35.484Z,82.58
2022-11-29T07:54:35.749Z,82.48
2022-11-29T07:55:36.819Z,82.58
2022-11-29T07:56:36.269Z,82.58
2022-11-29T07:57:36.505Z,82.48
2022-11-29T07:58:36.795Z,82.37
2022-11-29T07:59:37.038Z,82.27
2022-11-29T08:00:37.512Z,82.17
2022-11-29T08:01:37.663Z,82.27
2022-11-29T08:02:37.992Z,82.27
2022-11-29T08:03:38.268Z,82.37
2022-11-29T08:04:38.557Z,82.27
2022-11-29T08:05:38.809Z,82.27
2022-11-29T08:06:39.104Z,82.37
2022-11-29T08:07:39.405Z,82.27
2022-11-29T08:08:43.925Z,82.17
2022-11-29T08:09:40.150Z,82.27
2022-11-29T08:10:40.319Z,82.27
2022-11-29T08:11:40.914Z,82.27
2022-11-29T08:12:41.024Z,82.17
2022-11-29T08:13:41.915Z,82.06
2022-11-29T08:14:42.299Z,82.06
2022-11-29T08:15:42.124Z,82.27
2022-11-29T08:16:42.081Z,82.17
2022-11-29T08:17:42.344Z,82.17
2022-11-29T08:18:42.558Z,82.27
2022-11-29T08:19:43.173Z,82.27
2022-11-29T08:20:43.123Z,82.37
2022-11-29T08:21:44.181Z,82.37
2022-11-29T08:22:43.662Z,82.27
2022-11-29T08:23:44.703Z,82.37
2022-11-29T08:24:44.466Z,82.17
2022-11-29T08:25:44.464Z,82.17
2022-11-29T08:26:44.772Z,82.27
2022-11-29T08:27:45.067Z,82.48
2022-11-29T08:28:45.380Z,82.58
2022-11-29T08:29:45.644Z,82.48
2022-11-29T08:30:45.947Z,82.37
2022-11-29T08:31:46.307Z,82.37
2022-11-29T08:32:51.213Z,82.17
2022-11-29T08:33:47.715Z,82.06
2022-11-29T08:34:48.163Z,82.06
2022-11-29T08:35:47.346Z,82.17
2022-11-29T08:36:47.626Z,82.06
2022-11-29T08:37:47.921Z,82.06
2022-11-29T08:38:48.176Z,82.06
2022-11-29T08:39:48.446Z,81.85
2022-11-29T08:40:48.728Z,81.85
2022-11-29T08:41:49.007Z,81.85
2022-11-29T08:42:49.271Z,81.85
2022-11-29T08:43:49.563Z,81.85
2022-11-29T08:44:49.828Z,81.85
2022-11-29T08:45:50.100Z,81.85
2022-11-29T08:46:50.425Z,81.96
2022-11-29T08:47:50.672Z,82.06
2022-11-29T08:48:50.962Z,82.06
2022-11-29T08:49:51.210Z,81.96
2022-11-29T08:50:51.487Z,81.96
2022-11-29T08:51:51.759Z,82.06
2022-11-29T08:52:52.028Z,82.17
2022-11-29T08:53:52.311Z,82.17
2022-11-29T08:54:52.591Z,82.23
2022-11-29T08:55:52.853Z,82.13
2022-11-29T08:57:31.452Z,82.03
2022-11-29T08:57:54.372Z,81.82
2022-11-29T08:58:53.704Z,81.71
2022-11-29T08:59:54.060Z,81.51
2022-11-29T09:00:54.267Z,81.30
2022-11-29T09:01:54.587Z,81.20
2022-11-29T09:02:55.645Z,81.20
2022-11-29T09:03:55.156Z,81.20
2022-11-29T09:04:55.438Z,81.09
2022-11-29T09:05:55.743Z,81.09
2022-11-29T09:06:56.024Z,81.09
2022-11-29T09:07:56.318Z,81.20
2022-11-29T09:08:56.606Z,81.40
2022-11-29T09:09:56.928Z,81.40
2022-11-29T09:10:57.177Z,81.20
2022-11-29T09:11:57.472Z,80.99
2022-11-29T09:12:57.718Z,80.88
2022-11-29T09:13:57.979Z,80.88
2022-11-29T09:14:58.250Z,81.09
2022-11-29T09:15:58.506Z,81.20
2022-11-29T09:16:58.822Z,80.99
2022-11-29T09:17:59.066Z,80.78
2022-11-29T09:18:59.331Z,80.88
2022-11-29T09:19:59.615Z,80.78
2022-11-29T09:20:59.874Z,80.78
2022-11-29T09:22:00.147Z,80.88
2022-11-29T09:23:00.425Z,80.88
2022-11-29T09:24:00.677Z,80.99
2022-11-29T09:25:00.959Z,80.85
2022-11-29T09:26:01.218Z,80.74
2022-11-29T09:27:01.497Z,80.64
2022-11-29T09:28:01.770Z,80.64
2022-11-29T09:29:02.037Z,80.54
2022-11-29T09:30:02.293Z,80.43
2022-11-29T09:31:02.558Z,80.12
2022-11-29T09:32:02.898Z,80.02
2022-11-29T09:33:03.157Z,80.02
2022-11-29T09:34:03.491Z,80.22
2022-11-29T09:35:03.776Z,80.33
2022-11-29T09:36:04.034Z,80.43
2022-11-29T09:37:04.339Z,80.43
2022-11-29T09:38:04.673Z,80.22
2022-11-29T09:39:04.951Z,79.88
2022-11-29T09:40:05.199Z,79.77
2022-11-29T09:41:05.461Z,80.08
2022-11-29T09:42:05.740Z,80.08
2022-11-29T09:43:06.006Z,79.98
2022-11-29T09:44:06.260Z,80.08
2022-11-29T09:45:06.530Z,79.88
2022-11-29T09:46:06.879Z,79.67
2022-11-29T09:47:07.072Z,79.77
2022-11-29T09:48:07.328Z,79.57
2022-11-29T09:49:07.582Z,79.67
2022-11-29T09:50:07.852Z,79.77
2022-11-29T09:51:08.122Z,79.98
2022-11-29T09:52:08.432Z,79.77
2022-11-29T09:53:08.711Z,79.71
2022-11-29T09:54:08.964Z,79.71
2022-11-29T09:55:09.234Z,79.91
2022-11-29T09:56:09.503Z,79.71
2022-11-29T09:57:11.019Z,79.91
2022-11-29T09:58:10.083Z,80.02
2022-11-29T09:59:10.344Z,80.22
2022-11-29T10:00:10.594Z,80.29
2022-11-29T10:01:10.902Z,80.19
2022-11-29T10:02:11.191Z,80.08
2022-11-29T10:03:11.443Z,79.98
2022-11-29T10:04:11.715Z,79.88
2022-11-29T10:05:11.975Z,79.67
2022-11-29T10:06:12.336Z,79.67
2022-11-29T10:07:12.513Z,79.36
2022-11-29T10:08:12.777Z,79.16
2022-11-29T10:09:13.037Z,79.36
2022-11-29T10:10:13.312Z,79.43
2022-11-29T10:11:13.570Z,79.05
2022-11-29T10:12:13.896Z,78.85
2022-11-29T10:13:22.085Z,78.95
2022-11-29T10:14:14.702Z,79.05
2022-11-29T10:15:15.035Z,79.26
2022-11-29T10:16:15.224Z,79.47
2022-11-29T10:17:15.443Z,79.36
2022-11-29T10:18:15.747Z,79.47
2022-11-29T10:19:16.062Z,79.47
2022-11-29T10:20:16.461Z,79.57
2022-11-29T10:21:16.716Z,79.77
2022-11-29T10:22:16.998Z,79.57
2022-11-29T10:23:17.169Z,79.36
2022-11-29T10:24:17.434Z,79.67
2022-11-29T10:25:17.749Z,79.88
2022-11-29T10:26:18.002Z,79.57
2022-11-29T10:27:18.717Z,79.47
2022-11-29T10:28:18.515Z,79.47
2022-11-29T10:29:18.758Z,79.36
2022-11-29T10:30:18.993Z,79.47
2022-11-29T10:31:19.486Z,79.36
2022-11-29T10:32:19.600Z,79.47
2022-11-29T10:33:19.820Z,79.47
2022-11-29T10:34:20.157Z,79.77
2022-11-29T10:35:20.366Z,79.88
2022-11-29T10:36:20.735Z,79.98
2022-11-29T10:37:20.969Z,79.98
2022-11-29T10:38:36.560Z,79.57
2022-11-29T10:39:22.574Z,79.36
2022-11-29T10:40:21.736Z,79.67
2022-11-29T10:41:21.960Z,79.77
2022-11-29T10:42:22.263Z,79.47
2022-11-29T10:43:22.502Z,79.36
2022-11-29T10:44:22.752Z,79.16
2022-11-29T10:45:23.029Z,79.26
2022-11-29T10:46:23.349Z,79.47
2022-11-29T10:47:23.499Z,79.57
2022-11-29T10:48:23.721Z,79.67
2022-11-29T10:49:24.042Z,79.47
2022-11-29T10:50:24.385Z,79.47
2022-11-29T10:51:24.581Z,79.57
2022-11-29T10:52:24.961Z,79.47
2022-11-29T10:53:25.183Z,79.57
2022-11-29T10:54:25.491Z,79.77
2022-11-29T10:55:25.792Z,79.77
2022-11-29T10:56:26.127Z,79.67
2022-11-29T10:57:26.442Z,79.33
2022-11-29T10:58:28.726Z,79.22
2022-11-29T10:59:27.193Z,79.22
2022-11-29T11:00:27.378Z,79.12
2022-11-29T11:01:27.686Z,79.22
2022-11-29T11:02:28.057Z,79.22
2022-11-29T11:03:28.159Z,79.33
2022-11-29T11:04:28.400Z,79.53
2022-11-29T11:05:28.758Z,79.63
2022-11-29T11:06:29.023Z,79.63
2022-11-29T11:07:29.376Z,79.74
2022-11-29T11:08:29.624Z,79.74
2022-11-29T11:09:29.833Z,79.39
2022-11-29T11:10:30.244Z,78.98
2022-11-29T11:11:30.512Z,79.08
2022-11-29T11:12:30.754Z,79.08
2022-11-29T11:13:30.932Z,79.08
2022-11-29T11:14:31.342Z,79.08
2022-11-29T11:15:36.715Z,79.29
2022-11-29T11:16:37.098Z,79.08
2022-11-29T11:17:33.048Z,78.98
2022-11-29T11:18:32.299Z,78.98
2022-11-29T11:19:32.649Z,79.08
2022-11-29T11:20:32.962Z,79.08
2022-11-29T11:21:35.324Z,78.98
2022-11-29T11:22:33.547Z,78.98
2022-11-29T11:23:36.361Z,78.98
2022-11-29T11:24:34.174Z,79.12
2022-11-29T11:25:34.473Z,79.29
2022-11-29T11:26:34.698Z,79.39
2022-11-29T11:27:34.897Z,79.39
2022-11-29T11:28:35.252Z,79.19
2022-11-29T11:29:35.470Z,79.08
2022-11-29T11:30:35.797Z,79.19
2022-11-29T11:31:36.095Z,78.98
2022-11-29T11:32:36.418Z,78.98
2022-11-29T11:33:36.730Z,78.98
2022-11-29T11:34:37.060Z,78.98
2022-11-29T11:35:37.421Z,79.19
2022-11-29T11:36:37.600Z,79.29
2022-11-29T11:37:37.903Z,79.39
2022-11-29T11:38:38.231Z,79.29
2022-11-29T11:39:38.554Z,79.39
2022-11-29T11:40:38.940Z,79.49
2022-11-29T11:41:39.164Z,79.29
2022-11-29T11:42:39.451Z,79.08
2022-11-29T11:43:39.691Z,79.08
2022-11-29T11:44:58.034Z,79.08
2022-11-29T11:45:41.319Z,78.98
2022-11-29T11:46:40.649Z,79.08
2022-11-29T11:47:40.824Z,78.88
2022-11-29T11:48:41.185Z,78.77
2022-11-29T11:49:41.584Z,78.98
2022-11-29T11:50:41.635Z,78.88
2022-11-29T11:51:43.269Z,78.98
2022-11-29T11:52:50.579Z,79.05
2022-11-29T11:53:42.645Z,79.05
2022-11-29T11:54:43.128Z,78.94
2022-11-29T11:55:43.134Z,78.74
2022-11-29T11:56:43.361Z,78.74
2022-11-29T11:58:09.924Z,78.53
2022-11-29T11:58:45.140Z,78.84
2022-11-29T12:06:08.990Z,78.84
2022-11-29T12:07:07.999Z,78.67
2022-11-29T12:08:08.678Z,78.67
2022-11-29T12:09:40.896Z,78.84
2022-11-29T12:10:07.700Z,78.74
2022-11-29T12:11:08.006Z,78.88
2022-11-29T12:12:08.293Z,78.94
2022-11-29T12:13:08.832Z,78.98
2022-11-29T12:14:08.930Z,78.84
2022-11-29T12:15:09.167Z,78.94
2022-11-29T12:16:09.609Z,78.74
2022-11-29T12:17:09.768Z,78.88
2022-11-29T12:18:10.064Z,78.98
2022-11-29T12:19:10.758Z,79.05
2022-11-29T12:20:10.561Z,79.05
2022-11-29T12:21:10.859Z,78.63
2022-11-29T12:22:11.210Z,78.63
2022-11-29T12:23:11.549Z,78.84
2022-11-29T12:24:11.845Z,79.15
2022-11-29T12:25:12.180Z,79.15
2022-11-29T12:26:19.243Z,78.84
2022-11-29T12:27:13.733Z,78.84
2022-11-29T12:28:17.177Z,78.32
2022-11-29T12:29:14.172Z,78.32
2022-11-29T12:30:13.401Z,78.53
2022-11-29T12:31:13.797Z,78.63
2022-11-29T12:32:14.081Z,78.32
2022-11-29T12:33:14.328Z,78.11
2022-11-29T12:34:20.969Z,78.22
2022-11-29T12:35:18.746Z,78.32
2022-11-29T12:36:15.134Z,78.22
2022-11-29T12:37:15.386Z,78.46
2022-11-29T12:38:15.599Z,78.42
2022-11-29T12:39:15.926Z,78.56
2022-11-29T12:40:16.234Z,78.56
2022-11-29T12:41:16.620Z,78.46
2022-11-29T12:42:16.833Z,78.56
2022-11-29T12:43:17.088Z,78.56
2022-11-29T12:44:17.297Z,78.77
2022-11-29T12:45:17.605Z,78.77
2022-11-29T12:46:18.049Z,78.88
2022-11-29T12:48:19.601Z,79.08
2022-11-29T12:49:18.934Z,79.19
2022-11-29T12:50:19.138Z,79.39
2022-11-29T12:51:19.511Z,79.60
2022-11-29T12:52:19.833Z,79.60
2022-11-29T12:53:25.471Z,79.70
2022-11-29T12:54:21.503Z,79.91
2022-11-29T12:55:20.906Z,79.60
2022-11-29T12:56:21.075Z,79.39
2022-11-29T12:57:21.493Z,79.29
2022-11-29T12:58:21.647Z,79.29
2022-11-29T12:59:21.949Z,79.39
2022-11-29T13:00:22.289Z,79.49
2022-11-29T13:01:22.551Z,79.49
2022-11-29T13:02:22.786Z,79.39
2022-11-29T13:03:23.009Z,79.29